sensor_id;sensor_type;location;lat;lon;timestamp;pressure;altitude;pressure_sealevel;temperature;humidity
20077;BME280;12348;42.710;23.378;2023-04-09T00:01:06;95350.34;;;6.05;100.00
20077;BME280;12348;42.710;23.378;2023-04-09T00:03:34;95357.00;;;6.03;100.00
20077;BME280;12348;42.710;23.378;2023-04-09T00:06:03;95347.13;;;6.08;100.00
20077;BME280;12348;42.710;23.378;2023-04-09T00:08:30;95352.56;;;6.19;100.00
20077;BME280;12348;42.710;23.378;2023-04-09T00:10:57;95351.00;;;6.23;100.00
20077;BME280;12348;42.710;23.378;2023-04-09T00:13:25;95363.31;;;6.24;100.00
20077;BME280;12348;42.710;23.378;2023-04-09T00:15:51;95354.75;;;6.22;100.00
20077;BME280;12348;42.710;23.378;2023-04-09T00:18:18;95355.25;;;6.19;100.00
20077;BME280;12348;42.710;23.378;2023-04-09T00:20:45;95360.78;;;6.12;100.00
20077;BME280;12348;42.710;23.378;2023-04-09T00:23:13;95368.53;;;6.08;100.00
20077;BME280;12348;42.710;23.378;2023-04-09T00:25:40;95364.31;;;6.13;100.00
20077;BME280;12348;42.710;23.378;2023-04-09T00:28:07;95367.09;;;6.28;100.00
20077;BME280;12348;42.710;23.378;2023-04-09T00:30:34;95359.78;;;6.18;100.00
20077;BME280;12348;42.710;23.378;2023-04-09T00:33:01;95371.00;;;6.15;100.00
20077;BME280;12348;42.710;23.378;2023-04-09T00:35:27;95367.28;;;6.16;100.00
20077;BME280;12348;42.710;23.378;2023-04-09T00:37:54;95364.34;;;6.18;100.00
20077;BME280;12348;42.710;23.378;2023-04-09T00:40:23;95363.78;;;6.16;100.00
20077;BME280;12348;42.710;23.378;2023-04-09T00:42:49;95366.91;;;6.07;100.00
20077;BME280;12348;42.710;23.378;2023-04-09T00:45:16;95362.16;;;6.15;100.00
20077;BME280;12348;42.710;23.378;2023-04-09T00:47:43;95355.50;;;6.17;100.00
20077;BME280;12348;42.710;23.378;2023-04-09T00:50:10;95360.34;;;6.20;100.00
20077;BME280;12348;42.710;23.378;2023-04-09T00:52:37;95346.16;;;6.20;100.00
20077;BME280;12348;42.710;23.378;2023-04-09T00:55:05;95350.69;;;6.19;100.00
20077;BME280;12348;42.710;23.378;2023-04-09T00:57:34;95350.88;;;6.07;100.00
20077;BME280;12348;42.710;23.378;2023-04-09T01:00:02;95348.22;;;6.07;100.00
20077;BME280;12348;42.710;23.378;2023-04-09T01:02:31;95338.56;;;6.01;100.00
20077;BME280;12348;42.710;23.378;2023-04-09T01:04:58;95337.88;;;6.16;100.00
20077;BME280;12348;42.710;23.378;2023-04-09T01:07:33;95349.97;;;6.29;100.00
20077;BME280;12348;42.710;23.378;2023-04-09T01:10:11;95349.50;;;6.37;100.00
20077;BME280;12348;42.710;23.378;2023-04-09T01:12:50;95356.72;;;6.37;100.00
20077;BME280;12348;42.710;23.378;2023-04-09T01:15:24;95358.03;;;6.34;100.00
20077;BME280;12348;42.710;23.378;2023-04-09T01:17:55;95362.03;;;6.31;100.00
20077;BME280;12348;42.710;23.378;2023-04-09T01:20:29;95366.81;;;6.29;100.00
20077;BME280;12348;42.710;23.378;2023-04-09T01:23:03;95359.56;;;6.25;100.00
20077;BME280;12348;42.710;23.378;2023-04-09T01:25:42;95360.97;;;6.32;100.00
20077;BME280;12348;42.710;23.378;2023-04-09T01:28:16;95367.16;;;6.38;100.00
20077;BME280;12348;42.710;23.378;2023-04-09T01:30:47;95365.31;;;6.44;100.00
20077;BME280;12348;42.710;23.378;2023-04-09T01:33:16;95358.88;;;6.40;100.00
20077;BME280;12348;42.710;23.378;2023-04-09T01:35:45;95360.47;;;6.41;100.00
20077;BME280;12348;42.710;23.378;2023-04-09T01:38:15;95365.53;;;6.37;100.00
20077;BME280;12348;42.710;23.378;2023-04-09T01:40:44;95372.75;;;6.37;100.00
20077;BME280;12348;42.710;23.378;2023-04-09T01:43:12;95367.22;;;6.48;100.00
20077;BME280;12348;42.710;23.378;2023-04-09T01:45:41;95373.06;;;6.45;100.00
20077;BME280;12348;42.710;23.378;2023-04-09T01:48:09;95368.94;;;6.65;100.00
20077;BME280;12348;42.710;23.378;2023-04-09T01:50:36;95372.84;;;6.47;100.00
20077;BME280;12348;42.710;23.378;2023-04-09T01:53:03;95381.00;;;6.30;100.00
20077;BME280;12348;42.710;23.378;2023-04-09T01:55:30;95373.44;;;6.17;100.00
20077;BME280;12348;42.710;23.378;2023-04-09T01:57:57;95373.03;;;6.03;100.00
20077;BME280;12348;42.710;23.378;2023-04-09T02:00:26;95373.97;;;5.92;100.00
20077;BME280;12348;42.710;23.378;2023-04-09T02:03:01;95365.34;;;5.84;100.00
20077;BME280;12348;42.710;23.378;2023-04-09T02:05:34;95365.72;;;5.93;100.00
20077;BME280;12348;42.710;23.378;2023-04-09T02:08:03;95363.91;;;5.72;100.00
20077;BME280;12348;42.710;23.378;2023-04-09T02:10:32;95365.63;;;5.56;100.00
20077;BME280;12348;42.710;23.378;2023-04-09T02:13:01;95366.88;;;5.48;100.00
20077;BME280;12348;42.710;23.378;2023-04-09T02:15:31;95365.75;;;5.44;100.00
20077;BME280;12348;42.710;23.378;2023-04-09T02:18:01;95368.84;;;5.31;100.00
20077;BME280;12348;42.710;23.378;2023-04-09T02:20:28;95369.53;;;5.21;100.00
20077;BME280;12348;42.710;23.378;2023-04-09T02:22:55;95367.16;;;5.25;100.00
20077;BME280;12348;42.710;23.378;2023-04-09T02:25:21;95360.34;;;5.34;100.00
20077;BME280;12348;42.710;23.378;2023-04-09T02:27:49;95359.47;;;5.28;100.00
20077;BME280;12348;42.710;23.378;2023-04-09T02:30:15;95357.66;;;5.34;100.00
20077;BME280;12348;42.710;23.378;2023-04-09T02:32:43;95359.56;;;5.39;100.00
20077;BME280;12348;42.710;23.378;2023-04-09T02:35:11;95359.63;;;5.44;100.00
20077;BME280;12348;42.710;23.378;2023-04-09T02:37:39;95363.06;;;5.39;100.00
20077;BME280;12348;42.710;23.378;2023-04-09T02:40:06;95365.91;;;5.32;100.00
20077;BME280;12348;42.710;23.378;2023-04-09T02:42:33;95368.34;;;5.34;100.00
20077;BME280;12348;42.710;23.378;2023-04-09T02:45:00;95358.16;;;5.31;100.00
20077;BME280;12348;42.710;23.378;2023-04-09T02:47:26;95362.47;;;5.37;100.00
20077;BME280;12348;42.710;23.378;2023-04-09T02:49:54;95361.38;;;5.33;100.00
20077;BME280;12348;42.710;23.378;2023-04-09T02:52:22;95362.09;;;5.23;100.00
20077;BME280;12348;42.710;23.378;2023-04-09T02:54:50;95361.66;;;5.09;100.00
20077;BME280;12348;42.710;23.378;2023-04-09T02:57:17;95358.72;;;4.89;100.00
20077;BME280;12348;42.710;23.378;2023-04-09T02:59:45;95358.66;;;4.84;100.00
20077;BME280;12348;42.710;23.378;2023-04-09T03:02:12;95365.28;;;4.81;100.00
20077;BME280;12348;42.710;23.378;2023-04-09T03:04:39;95365.88;;;4.83;100.00
20077;BME280;12348;42.710;23.378;2023-04-09T03:07:06;95354.63;;;4.81;100.00
20077;BME280;12348;42.710;23.378;2023-04-09T03:09:34;95350.59;;;5.23;100.00
20077;BME280;12348;42.710;23.378;2023-04-09T03:12:01;95347.56;;;4.92;100.00
20077;BME280;12348;42.710;23.378;2023-04-09T03:14:28;95347.56;;;4.92;100.00
20077;BME280;12348;42.710;23.378;2023-04-09T03:16:55;95348.94;;;4.95;100.00
20077;BME280;12348;42.710;23.378;2023-04-09T03:19:22;95347.13;;;5.00;100.00
20077;BME280;12348;42.710;23.378;2023-04-09T03:21:48;95350.34;;;5.02;100.00
20077;BME280;12348;42.710;23.378;2023-04-09T03:24:15;95357.91;;;4.89;100.00
20077;BME280;12348;42.710;23.378;2023-04-09T03:26:44;95354.94;;;4.85;100.00
20077;BME280;12348;42.710;23.378;2023-04-09T03:29:11;95356.88;;;4.90;100.00
20077;BME280;12348;42.710;23.378;2023-04-09T03:31:37;95354.13;;;4.84;100.00
20077;BME280;12348;42.710;23.378;2023-04-09T03:34:04;95354.31;;;4.78;100.00
20077;BME280;12348;42.710;23.378;2023-04-09T03:36:31;95360.50;;;4.61;100.00
20077;BME280;12348;42.710;23.378;2023-04-09T03:38:58;95362.44;;;4.66;100.00
20077;BME280;12348;42.710;23.378;2023-04-09T03:41:25;95358.41;;;4.64;100.00
20077;BME280;12348;42.710;23.378;2023-04-09T03:43:55;95362.03;;;4.74;100.00
20077;BME280;12348;42.710;23.378;2023-04-09T03:46:21;95356.00;;;4.84;100.00
20077;BME280;12348;42.710;23.378;2023-04-09T03:48:50;95353.13;;;4.69;100.00
20077;BME280;12348;42.710;23.378;2023-04-09T03:51:17;95352.13;;;4.53;100.00
20077;BME280;12348;42.710;23.378;2023-04-09T03:53:44;95359.72;;;4.44;100.00
20077;BME280;12348;42.710;23.378;2023-04-09T03:56:11;95366.19;;;4.48;100.00
20077;BME280;12348;42.710;23.378;2023-04-09T03:58:37;95374.69;;;4.45;100.00
20077;BME280;12348;42.710;23.378;2023-04-09T04:01:06;95376.03;;;4.48;100.00
20077;BME280;12348;42.710;23.378;2023-04-09T04:03:33;95372.56;;;4.47;100.00
20077;BME280;12348;42.710;23.378;2023-04-09T04:06:00;95381.69;;;4.51;100.00
20077;BME280;12348;42.710;23.378;2023-04-09T04:08:28;95372.06;;;5.33;100.00
20077;BME280;12348;42.710;23.378;2023-04-09T04:10:55;95377.91;;;4.86;100.00
20077;BME280;12348;42.710;23.378;2023-04-09T04:13:22;95376.41;;;4.73;100.00
20077;BME280;12348;42.710;23.378;2023-04-09T04:15:48;95379.22;;;4.67;100.00
20077;BME280;12348;42.710;23.378;2023-04-09T04:18:17;95376.66;;;4.72;100.00
20077;BME280;12348;42.710;23.378;2023-04-09T04:20:44;95383.09;;;4.76;100.00
20077;BME280;12348;42.710;23.378;2023-04-09T04:23:11;95378.88;;;4.80;100.00
20077;BME280;12348;42.710;23.378;2023-04-09T04:25:39;95376.28;;;4.85;100.00
20077;BME280;12348;42.710;23.378;2023-04-09T04:28:06;95382.25;;;4.92;100.00
20077;BME280;12348;42.710;23.378;2023-04-09T04:30:33;95382.25;;;4.92;100.00
20077;BME280;12348;42.710;23.378;2023-04-09T04:33:00;95379.88;;;5.18;100.00
20077;BME280;12348;42.710;23.378;2023-04-09T04:35:28;95389.88;;;5.27;100.00
20077;BME280;12348;42.710;23.378;2023-04-09T04:37:55;95385.34;;;5.28;100.00
20077;BME280;12348;42.710;23.378;2023-04-09T04:40:21;95385.41;;;5.33;100.00
20077;BME280;12348;42.710;23.378;2023-04-09T04:42:48;95388.44;;;5.42;100.00
20077;BME280;12348;42.710;23.378;2023-04-09T04:45:15;95381.56;;;5.46;100.00
20077;BME280;12348;42.710;23.378;2023-04-09T04:47:41;95389.59;;;5.51;100.00
20077;BME280;12348;42.710;23.378;2023-04-09T04:50:09;95394.19;;;5.55;100.00
20077;BME280;12348;42.710;23.378;2023-04-09T04:52:37;95391.94;;;5.69;100.00
20077;BME280;12348;42.710;23.378;2023-04-09T04:55:05;95389.41;;;5.84;100.00
20077;BME280;12348;42.710;23.378;2023-04-09T04:57:32;95392.56;;;6.08;100.00
20077;BME280;12348;42.710;23.378;2023-04-09T04:59:59;95390.34;;;6.27;100.00
20077;BME280;12348;42.710;23.378;2023-04-09T05:02:25;95391.56;;;6.47;100.00
20077;BME280;12348;42.710;23.378;2023-04-09T05:04:52;95394.44;;;6.83;100.00
20077;BME280;12348;42.710;23.378;2023-04-09T05:07:19;95382.94;;;7.45;100.00
20077;BME280;12348;42.710;23.378;2023-04-09T05:09:47;95389.28;;;8.37;100.00
20077;BME280;12348;42.710;23.378;2023-04-09T05:12:14;95381.97;;;8.94;100.00
20077;BME280;12348;42.710;23.378;2023-04-09T05:14:43;95390.25;;;9.08;100.00
20077;BME280;12348;42.710;23.378;2023-04-09T05:17:09;95395.38;;;9.04;100.00
20077;BME280;12348;42.710;23.378;2023-04-09T05:19:36;95385.72;;;8.93;100.00
20077;BME280;12348;42.710;23.378;2023-04-09T05:22:03;95389.47;;;9.62;100.00
20077;BME280;12348;42.710;23.378;2023-04-09T05:24:30;95402.84;;;9.77;100.00
20077;BME280;12348;42.710;23.378;2023-04-09T05:26:58;95397.47;;;9.17;100.00
20077;BME280;12348;42.710;23.378;2023-04-09T05:29:25;95396.75;;;8.10;100.00
20077;BME280;12348;42.710;23.378;2023-04-09T05:31:52;95399.94;;;7.91;100.00
20077;BME280;12348;42.710;23.378;2023-04-09T05:34:19;95391.88;;;7.66;100.00
20077;BME280;12348;42.710;23.378;2023-04-09T05:36:46;95394.75;;;7.49;100.00
20077;BME280;12348;42.710;23.378;2023-04-09T05:39:12;95390.44;;;7.43;100.00
20077;BME280;12348;42.710;23.378;2023-04-09T05:41:39;95391.78;;;7.40;100.00
20077;BME280;12348;42.710;23.378;2023-04-09T05:44:10;95387.00;;;7.52;100.00
20077;BME280;12348;42.710;23.378;2023-04-09T05:46:36;95393.72;;;7.60;100.00
20077;BME280;12348;42.710;23.378;2023-04-09T05:49:03;95394.53;;;7.66;100.00
20077;BME280;12348;42.710;23.378;2023-04-09T05:51:30;95396.16;;;7.72;100.00
20077;BME280;12348;42.710;23.378;2023-04-09T05:53:57;95394.56;;;7.91;100.00
20077;BME280;12348;42.710;23.378;2023-04-09T05:56:24;95395.13;;;8.09;100.00
20077;BME280;12348;42.710;23.378;2023-04-09T05:58:52;95395.13;;;7.88;100.00
20077;BME280;12348;42.710;23.378;2023-04-09T06:01:20;95401.03;;;7.95;100.00
20077;BME280;12348;42.710;23.378;2023-04-09T06:03:47;95395.63;;;7.80;100.00
20077;BME280;12348;42.710;23.378;2023-04-09T06:06:14;95399.41;;;7.84;100.00
20077;BME280;12348;42.710;23.378;2023-04-09T06:08:41;95414.88;;;7.57;100.00
20077;BME280;12348;42.710;23.378;2023-04-09T06:11:09;95394.50;;;7.56;100.00
20077;BME280;12348;42.710;23.378;2023-04-09T06:13:36;95399.66;;;7.77;100.00
20077;BME280;12348;42.710;23.378;2023-04-09T06:16:03;95399.31;;;7.48;100.00
20077;BME280;12348;42.710;23.378;2023-04-09T06:18:32;95403.66;;;7.70;100.00
20077;BME280;12348;42.710;23.378;2023-04-09T06:21:02;95403.38;;;7.76;100.00
20077;BME280;12348;42.710;23.378;2023-04-09T06:23:29;95402.38;;;7.93;100.00
20077;BME280;12348;42.710;23.378;2023-04-09T06:25:56;95402.63;;;8.01;100.00
20077;BME280;12348;42.710;23.378;2023-04-09T06:28:23;95413.41;;;8.22;100.00
20077;BME280;12348;42.710;23.378;2023-04-09T06:30:50;95406.91;;;8.02;100.00
20077;BME280;12348;42.710;23.378;2023-04-09T06:33:19;95402.63;;;8.01;100.00
20077;BME280;12348;42.710;23.378;2023-04-09T06:35:49;95406.94;;;7.97;100.00
20077;BME280;12348;42.710;23.378;2023-04-09T06:38:16;95398.34;;;7.85;100.00
20077;BME280;12348;42.710;23.378;2023-04-09T06:40:43;95418.19;;;7.84;100.00
20077;BME280;12348;42.710;23.378;2023-04-09T06:43:10;95419.00;;;8.00;100.00
20077;BME280;12348;42.710;23.378;2023-04-09T06:45:37;95417.94;;;8.01;100.00
20077;BME280;12348;42.710;23.378;2023-04-09T06:48:05;95415.25;;;8.11;100.00
20077;BME280;12348;42.710;23.378;2023-04-09T06:50:32;95421.22;;;8.49;100.00
20077;BME280;12348;42.710;23.378;2023-04-09T06:53:01;95403.47;;;8.89;100.00
20077;BME280;12348;42.710;23.378;2023-04-09T06:55:27;95408.56;;;8.90;100.00
20077;BME280;12348;42.710;23.378;2023-04-09T06:57:54;95427.34;;;8.80;100.00
20077;BME280;12348;42.710;23.378;2023-04-09T07:00:21;95424.94;;;8.79;100.00
20077;BME280;12348;42.710;23.378;2023-04-09T07:02:48;95426.31;;;8.45;100.00
20077;BME280;12348;42.710;23.378;2023-04-09T07:05:15;95421.75;;;8.56;100.00
20077;BME280;12348;42.710;23.378;2023-04-09T07:07:42;95407.50;;;8.50;100.00
20077;BME280;12348;42.710;23.378;2023-04-09T07:10:10;95420.94;;;8.56;100.00
20077;BME280;12348;42.710;23.378;2023-04-09T07:12:37;95428.44;;;8.79;100.00
20077;BME280;12348;42.710;23.378;2023-04-09T07:15:05;95415.00;;;8.79;100.00
20077;BME280;12348;42.710;23.378;2023-04-09T07:17:33;95418.78;;;8.58;100.00
20077;BME280;12348;42.710;23.378;2023-04-09T07:19:59;95420.38;;;8.69;100.00
20077;BME280;12348;42.710;23.378;2023-04-09T07:22:28;95405.09;;;8.64;100.00
20077;BME280;12348;42.710;23.378;2023-04-09T07:24:55;95419.28;;;8.90;100.00
20077;BME280;12348;42.710;23.378;2023-04-09T07:27:25;95416.31;;;9.02;100.00
20077;BME280;12348;42.710;23.378;2023-04-09T07:29:53;95428.38;;;9.10;100.00
20077;BME280;12348;42.710;23.378;2023-04-09T07:32:21;95436.94;;;9.22;100.00
20077;BME280;12348;42.710;23.378;2023-04-09T07:34:50;95426.50;;;9.15;100.00
20077;BME280;12348;42.710;23.378;2023-04-09T07:37:17;95429.13;;;9.26;100.00
20077;BME280;12348;42.710;23.378;2023-04-09T07:39:44;95429.34;;;9.44;100.00
20077;BME280;12348;42.710;23.378;2023-04-09T07:42:11;95421.53;;;9.48;100.00
20077;BME280;12348;42.710;23.378;2023-04-09T07:44:39;95424.00;;;9.39;100.00
20077;BME280;12348;42.710;23.378;2023-04-09T07:47:07;95434.81;;;9.19;100.00
20077;BME280;12348;42.710;23.378;2023-04-09T07:49:34;95438.63;;;8.97;100.00
20077;BME280;12348;42.710;23.378;2023-04-09T07:52:01;95446.66;;;9.08;100.00
20077;BME280;12348;42.710;23.378;2023-04-09T07:54:28;95436.66;;;9.29;100.00
20077;BME280;12348;42.710;23.378;2023-04-09T07:56:55;95456.84;;;9.16;100.00
20077;BME280;12348;42.710;23.378;2023-04-09T07:59:22;95447.16;;;9.20;100.00
20077;BME280;12348;42.710;23.378;2023-04-09T08:01:51;95447.19;;;9.15;100.00
20077;BME280;12348;42.710;23.378;2023-04-09T08:04:17;95459.53;;;9.11;100.00
20077;BME280;12348;42.710;23.378;2023-04-09T08:06:44;95449.81;;;9.25;100.00
20077;BME280;12348;42.710;23.378;2023-04-09T08:09:15;95452.78;;;9.34;100.00
20077;BME280;12348;42.710;23.378;2023-04-09T08:11:41;95446.56;;;9.38;100.00
20077;BME280;12348;42.710;23.378;2023-04-09T08:14:10;95452.47;;;9.40;100.00
20077;BME280;12348;42.710;23.378;2023-04-09T08:16:38;95458.41;;;9.37;100.00
20077;BME280;12348;42.710;23.378;2023-04-09T08:19:07;95447.56;;;9.58;100.00
20077;BME280;12348;42.710;23.378;2023-04-09T08:21:36;95462.78;;;9.88;100.00
20077;BME280;12348;42.710;23.378;2023-04-09T08:24:03;95456.25;;;9.39;100.00
20077;BME280;12348;42.710;23.378;2023-04-09T08:26:30;95455.16;;;10.05;100.00
20077;BME280;12348;42.710;23.378;2023-04-09T08:28:58;95469.59;;;9.65;100.00
20077;BME280;12348;42.710;23.378;2023-04-09T08:31:25;95455.34;;;9.64;100.00
20077;BME280;12348;42.710;23.378;2023-04-09T08:33:52;95459.13;;;9.58;100.00
20077;BME280;12348;42.710;23.378;2023-04-09T08:36:20;95454.50;;;9.74;100.00
20077;BME280;12348;42.710;23.378;2023-04-09T08:38:47;95450.16;;;9.83;100.00
20077;BME280;12348;42.710;23.378;2023-04-09T08:41:18;95455.00;;;9.81;100.00
20077;BME280;12348;42.710;23.378;2023-04-09T08:43:46;95452.56;;;9.85;100.00
20077;BME280;12348;42.710;23.378;2023-04-09T08:46:13;95445.03;;;9.82;100.00
20077;BME280;12348;42.710;23.378;2023-04-09T08:48:42;95441.75;;;9.95;100.00
20077;BME280;12348;42.710;23.378;2023-04-09T08:51:12;95447.47;;;10.33;100.00
20077;BME280;12348;42.710;23.378;2023-04-09T08:53:43;95434.53;;;10.35;100.00
20077;BME280;12348;42.710;23.378;2023-04-09T08:56:10;95446.59;;;10.42;100.00
20077;BME280;12348;42.710;23.378;2023-04-09T08:58:42;95433.13;;;11.06;100.00
20077;BME280;12348;42.710;23.378;2023-04-09T09:01:19;95434.72;;;11.07;100.00
20077;BME280;12348;42.710;23.378;2023-04-09T09:03:53;95429.97;;;11.23;100.00
20077;BME280;12348;42.710;23.378;2023-04-09T09:06:21;95428.59;;;12.16;100.00
20077;BME280;12348;42.710;23.378;2023-04-09T09:09:02;95414.78;;;12.55;89.20
20077;BME280;12348;42.710;23.378;2023-04-09T09:11:29;95418.53;;;11.84;91.88
20077;BME280;12348;42.710;23.378;2023-04-09T09:13:57;95418.50;;;11.60;97.16
20077;BME280;12348;42.710;23.378;2023-04-09T09:16:24;95425.00;;;11.35;93.76
20077;BME280;12348;42.710;23.378;2023-04-09T09:18:52;95420.25;;;10.98;98.83
20077;BME280;12348;42.710;23.378;2023-04-09T09:21:20;95411.16;;;11.41;95.77
20077;BME280;12348;42.710;23.378;2023-04-09T09:23:47;95426.91;;;11.05;97.89
20077;BME280;12348;42.710;23.378;2023-04-09T09:26:17;95416.06;;;10.86;100.00
20077;BME280;12348;42.710;23.378;2023-04-09T09:28:45;95421.19;;;10.88;100.00
20077;BME280;12348;42.710;23.378;2023-04-09T09:31:13;95415.81;;;10.54;100.00
20077;BME280;12348;42.710;23.378;2023-04-09T09:33:40;95401.44;;;10.68;100.00
20077;BME280;12348;42.710;23.378;2023-04-09T09:36:08;95419.94;;;10.75;100.00
20077;BME280;12348;42.710;23.378;2023-04-09T09:38:50;95391.28;;;11.13;100.00
20077;BME280;12348;42.710;23.378;2023-04-09T09:41:19;95397.56;;;11.95;93.39
20077;BME280;12348;42.710;23.378;2023-04-09T09:43:46;95390.66;;;11.88;91.82
20077;BME280;12348;42.710;23.378;2023-04-09T09:46:14;95399.94;;;11.34;94.51
20077;BME280;12348;42.710;23.378;2023-04-09T09:48:41;95399.72;;;11.74;93.17
20077;BME280;12348;42.710;23.378;2023-04-09T09:51:09;95391.56;;;11.36;93.33
20077;BME280;12348;42.710;23.378;2023-04-09T09:53:37;95384.56;;;11.35;94.54
20077;BME280;12348;42.710;23.378;2023-04-09T09:56:05;95384.16;;;11.47;93.12
20077;BME280;12348;42.710;23.378;2023-04-09T09:58:36;95387.25;;;11.35;94.27
20077;BME280;12348;42.710;23.378;2023-04-09T10:01:07;95382.53;;;11.46;94.96
20077;BME280;12348;42.710;23.378;2023-04-09T10:03:36;95365.28;;;11.47;93.21
20077;BME280;12348;42.710;23.378;2023-04-09T10:06:04;95379.41;;;12.71;87.01
20077;BME280;12348;42.710;23.378;2023-04-09T10:08:33;95367.59;;;12.80;84.06
20077;BME280;12348;42.710;23.378;2023-04-09T10:11:02;95362.88;;;12.40;84.22
20077;BME280;12348;42.710;23.378;2023-04-09T10:13:36;95368.22;;;12.91;80.96
20077;BME280;12348;42.710;23.378;2023-04-09T10:16:05;95358.47;;;12.30;81.55
20077;BME280;12348;42.710;23.378;2023-04-09T10:18:32;95359.66;;;12.56;79.70
20077;BME280;12348;42.710;23.378;2023-04-09T10:21:04;95364.66;;;12.30;84.54
20077;BME280;12348;42.710;23.378;2023-04-09T10:23:37;95354.38;;;12.13;84.26
20077;BME280;12348;42.710;23.378;2023-04-09T10:26:05;95354.19;;;12.75;82.21
20077;BME280;12348;42.710;23.378;2023-04-09T10:28:32;95357.31;;;12.50;80.30
20077;BME280;12348;42.710;23.378;2023-04-09T10:31:03;95342.88;;;12.08;82.84
20077;BME280;12348;42.710;23.378;2023-04-09T10:33:30;95362.69;;;12.17;83.77
20077;BME280;12348;42.710;23.378;2023-04-09T10:35:59;95347.28;;;12.36;81.89
20077;BME280;12348;42.710;23.378;2023-04-09T10:38:33;95348.00;;;12.42;79.75
20077;BME280;12348;42.710;23.378;2023-04-09T10:41:12;95344.47;;;12.74;77.80
20077;BME280;12348;42.710;23.378;2023-04-09T10:43:40;95340.31;;;12.49;78.37
20077;BME280;12348;42.710;23.378;2023-04-09T10:46:25;95332.09;;;12.41;79.11
20077;BME280;12348;42.710;23.378;2023-04-09T10:49:08;95331.72;;;12.47;79.99
20077;BME280;12348;42.710;23.378;2023-04-09T10:51:36;95324.69;;;12.46;81.10
20077;BME280;12348;42.710;23.378;2023-04-09T10:54:04;95325.69;;;12.97;77.45
20077;BME280;12348;42.710;23.378;2023-04-09T10:56:32;95324.91;;;13.24;75.34
20077;BME280;12348;42.710;23.378;2023-04-09T10:58:58;95333.47;;;12.84;70.98
20077;BME280;12348;42.710;23.378;2023-04-09T11:01:27;95324.75;;;12.88;68.43
20077;BME280;12348;42.710;23.378;2023-04-09T11:04:07;95306.56;;;12.93;69.61
20077;BME280;12348;42.710;23.378;2023-04-09T11:06:35;95309.19;;;13.26;68.35
20077;BME280;12348;42.710;23.378;2023-04-09T11:09:03;95312.59;;;13.31;66.03
20077;BME280;12348;42.710;23.378;2023-04-09T11:11:30;95296.88;;;13.33;67.23
20077;BME280;12348;42.710;23.378;2023-04-09T11:13:58;95307.06;;;12.95;67.27
20077;BME280;12348;42.710;23.378;2023-04-09T11:16:28;95303.75;;;12.71;67.29
20077;BME280;12348;42.710;23.378;2023-04-09T11:18:55;95305.63;;;12.56;67.49
20077;BME280;12348;42.710;23.378;2023-04-09T11:21:25;95295.75;;;12.79;64.37
20077;BME280;12348;42.710;23.378;2023-04-09T11:23:53;95332.56;;;12.75;63.11
20077;BME280;12348;42.710;23.378;2023-04-09T11:26:22;95319.66;;;12.58;63.89
20077;BME280;12348;42.710;23.378;2023-04-09T11:28:49;95307.09;;;12.49;63.95
20077;BME280;12348;42.710;23.378;2023-04-09T11:31:16;95290.31;;;12.52;67.55
20077;BME280;12348;42.710;23.378;2023-04-09T11:33:46;95300.28;;;12.37;63.11
20077;BME280;12348;42.710;23.378;2023-04-09T11:36:13;95299.31;;;12.61;64.00
20077;BME280;12348;42.710;23.378;2023-04-09T11:38:39;95291.38;;;12.51;66.35
20077;BME280;12348;42.710;23.378;2023-04-09T11:41:06;95312.81;;;12.61;62.65
20077;BME280;12348;42.710;23.378;2023-04-09T11:43:37;95290.31;;;12.66;62.10
20077;BME280;12348;42.710;23.378;2023-04-09T11:46:04;95290.25;;;12.71;61.98
20077;BME280;12348;42.710;23.378;2023-04-09T11:48:32;95283.09;;;12.61;61.00
20077;BME280;12348;42.710;23.378;2023-04-09T11:51:00;95285.13;;;12.69;60.94
20077;BME280;12348;42.710;23.378;2023-04-09T11:53:29;95284.34;;;12.82;61.08
20077;BME280;12348;42.710;23.378;2023-04-09T11:55:57;95281.94;;;13.08;61.57
20077;BME280;12348;42.710;23.378;2023-04-09T11:58:25;95278.94;;;13.24;59.24
20077;BME280;12348;42.710;23.378;2023-04-09T12:00:52;95280.53;;;13.11;58.84
20077;BME280;12348;42.710;23.378;2023-04-09T12:03:26;95278.22;;;12.91;58.82
20077;BME280;12348;42.710;23.378;2023-04-09T12:05:53;95277.91;;;13.06;59.54
20077;BME280;12348;42.710;23.378;2023-04-09T12:08:22;95273.53;;;13.38;59.01
20077;BME280;12348;42.710;23.378;2023-04-09T12:10:50;95266.25;;;13.61;56.98
20077;BME280;12348;42.710;23.378;2023-04-09T12:13:18;95268.53;;;13.67;57.37
20077;BME280;12348;42.710;23.378;2023-04-09T12:15:48;95265.19;;;14.06;57.19
20077;BME280;12348;42.710;23.378;2023-04-09T12:18:15;95256.84;;;13.44;58.80
20077;BME280;12348;42.710;23.378;2023-04-09T12:20:43;95264.63;;;13.37;56.74
20077;BME280;12348;42.710;23.378;2023-04-09T12:23:11;95260.00;;;13.38;57.29
20077;BME280;12348;42.710;23.378;2023-04-09T12:25:41;95258.00;;;13.66;57.94
20077;BME280;12348;42.710;23.378;2023-04-09T12:28:11;95273.00;;;13.36;55.92
20077;BME280;12348;42.710;23.378;2023-04-09T12:30:40;95261.00;;;12.86;56.88
20077;BME280;12348;42.710;23.378;2023-04-09T12:33:07;95266.63;;;13.31;57.16
20077;BME280;12348;42.710;23.378;2023-04-09T12:35:34;95258.81;;;13.30;57.56
20077;BME280;12348;42.710;23.378;2023-04-09T12:38:02;95257.63;;;13.58;58.38
20077;BME280;12348;42.710;23.378;2023-04-09T12:40:30;95254.47;;;13.43;58.89
20077;BME280;12348;42.710;23.378;2023-04-09T12:42:58;95248.88;;;13.25;57.44
20077;BME280;12348;42.710;23.378;2023-04-09T12:45:25;95244.47;;;13.16;59.19
20077;BME280;12348;42.710;23.378;2023-04-09T12:47:52;95241.19;;;13.05;58.46
20077;BME280;12348;42.710;23.378;2023-04-09T12:50:19;95251.19;;;12.91;59.28
20077;BME280;12348;42.710;23.378;2023-04-09T12:52:46;95246.50;;;12.96;59.42
20077;BME280;12348;42.710;23.378;2023-04-09T12:55:13;95262.13;;;12.85;59.83